createdAt,value
2018-11-10T00:04:03.589Z,100
2018-11-10T00:09:03.554Z,100
2018-11-10T00:14:03.556Z,100
2018-11-10T00:19:15.593Z,100
2018-11-10T00:24:15.583Z,100
2018-11-10T00:29:15.604Z,100
2018-11-10T00:34:15.598Z,100
2018-11-10T00:39:15.609Z,100
2018-11-10T00:44:15.624Z,100
2018-11-10T00:49:15.622Z,100
2018-11-10T00:54:15.617Z,100
2018-11-10T00:59:15.601Z,100
2018-11-10T01:04:26.721Z,100
2018-11-10T01:09:26.760Z,100
2018-11-10T01:14:26.733Z,100
2018-11-10T01:19:26.744Z,100
2018-11-10T01:24:26.730Z,100
2018-11-10T01:29:26.741Z,100
2018-11-10T01:34:26.735Z,100
2018-11-10T01:39:26.746Z,100
2018-11-10T01:44:26.698Z,100
2018-11-10T01:54:38.041Z,100
2018-11-10T01:59:38.034Z,100
2018-11-10T02:04:38.036Z,100
2018-11-10T02:09:38.034Z,100
2018-11-10T02:14:38.037Z,100
2018-11-10T02:19:38.032Z,100
2018-11-10T02:24:38.004Z,100
2018-11-10T02:29:38.049Z,100
2018-11-10T02:34:52.193Z,100
2018-11-10T02:39:52.145Z,100
2018-11-10T02:44:52.313Z,100
2018-11-10T02:49:52.328Z,100
2018-11-10T02:54:52.198Z,100
2018-11-10T02:59:52.207Z,100
2018-11-10T03:04:52.238Z,100
2018-11-10T03:09:52.449Z,100
2018-11-10T03:14:52.470Z,100
2018-11-10T03:20:04.562Z,100
2018-11-10T03:25:04.560Z,100
2018-11-10T03:30:04.553Z,100
2018-11-10T03:35:04.540Z,100
2018-11-10T03:40:04.556Z,100
2018-11-10T03:45:04.572Z,100
2018-11-10T03:50:04.693Z,100
2018-11-10T03:55:05.155Z,100
2018-11-10T04:00:05.305Z,100
2018-11-10T04:05:18.001Z,100
2018-11-10T04:10:18.003Z,100
2018-11-10T04:15:18.001Z,100
2018-11-10T04:20:18.001Z,100
2018-11-10T04:25:18.006Z,100
2018-11-10T04:30:18.006Z,100
2018-11-10T04:35:19.135Z,100
2018-11-10T04:40:18.007Z,100
2018-11-10T04:45:18.012Z,100
2018-11-10T04:50:29.951Z,100
2018-11-10T04:55:29.939Z,100
2018-11-10T05:00:29.959Z,100
2018-11-10T05:05:29.952Z,100
2018-11-10T05:10:29.947Z,100
2018-11-10T05:15:29.938Z,100
2018-11-10T05:20:29.959Z,100
2018-11-10T05:25:29.963Z,100
2018-11-10T05:30:29.981Z,100
2018-11-10T05:35:41.072Z,100
2018-11-10T05:40:41.068Z,100
2018-11-10T05:45:41.065Z,100
2018-11-10T05:50:41.025Z,100
2018-11-10T05:55:41.063Z,100
2018-11-10T06:00:41.060Z,100
2018-11-10T06:05:41.056Z,100
2018-11-10T06:10:42.744Z,100
2018-11-10T06:15:41.074Z,100
2018-11-10T06:22:02.033Z,100
2018-11-10T06:30:22.276Z,100
2018-11-10T06:35:22.260Z,100
2018-11-10T06:40:22.251Z,100
2018-11-10T06:45:22.255Z,100
2018-11-10T06:50:32.850Z,100
2018-11-10T06:55:32.856Z,100
2018-11-10T07:00:32.848Z,100
2018-11-10T07:05:32.860Z,100
2018-11-10T07:10:32.854Z,100
2018-11-10T07:15:32.850Z,100
2018-11-10T07:20:32.860Z,100
2018-11-10T07:28:04.817Z,100
2018-11-10T07:33:06.135Z,100
2018-11-10T07:38:04.768Z,100
2018-11-10T07:43:04.978Z,99.7
2018-11-10T07:48:14.482Z,99.5
2018-11-10T07:53:14.469Z,100
2018-11-10T07:58:17.443Z,99.4
2018-11-10T08:03:14.484Z,99.5
2018-11-10T08:08:17.323Z,99.1
2018-11-10T08:13:14.492Z,98.6
2018-11-10T08:18:14.466Z,98.7
2018-11-10T08:23:16.368Z,98.7
2018-11-10T08:28:16.382Z,98.7
2018-11-10T08:33:28.251Z,97.8
2018-11-10T08:38:28.241Z,97.4
2018-11-10T08:43:28.234Z,97.6
2018-11-10T08:48:28.230Z,96.8
2018-11-10T08:53:28.267Z,96.3
2018-11-10T08:58:28.269Z,96
2018-11-10T09:03:28.269Z,95.4
2018-11-10T09:08:28.285Z,95.5
2018-11-10T09:13:28.257Z,95.9
2018-11-10T09:18:39.352Z,94.9
2018-11-10T09:23:39.398Z,95.1
2018-11-10T09:28:39.306Z,94.7
2018-11-10T09:33:39.317Z,94.5
2018-11-10T09:38:39.371Z,95
2018-11-10T09:43:39.337Z,93.8
2018-11-10T09:48:39.318Z,93.6
2018-11-10T09:53:39.346Z,92.2
2018-11-10T09:58:39.369Z,93
2018-11-10T10:03:50.686Z,92.4
2018-11-10T10:08:50.847Z,92.4
2018-11-10T10:13:50.692Z,91.3
2018-11-10T10:18:50.685Z,91
2018-11-10T10:23:50.804Z,91.2
2018-11-10T10:28:50.842Z,90.5
2018-11-10T10:33:50.803Z,91.4
2018-11-10T10:38:50.722Z,91
2018-11-10T10:43:50.721Z,90.5
2018-11-10T10:49:01.961Z,90.6
2018-11-10T10:54:01.784Z,90.5
2018-11-10T10:59:01.769Z,90.6
2018-11-10T11:04:01.903Z,90.2
2018-11-10T11:09:02.008Z,90.1
2018-11-10T11:14:01.780Z,89.7
2018-11-10T11:19:01.807Z,90.1
2018-11-10T11:24:01.978Z,90
2018-11-10T11:29:02.150Z,89.4
2018-11-10T11:34:14.200Z,89.4
2018-11-10T11:39:14.162Z,89.7
2018-11-10T11:44:14.250Z,89.5
2018-11-10T11:49:14.130Z,88.8
2018-11-10T11:54:14.207Z,88.5
2018-11-10T11:59:14.196Z,88.9
2018-11-10T12:04:14.269Z,88.9
2018-11-10T12:09:14.205Z,88.7
2018-11-10T12:14:14.228Z,88.9
2018-11-10T12:19:26.656Z,88.3
2018-11-10T12:26:54.778Z,88.1
2018-11-10T12:31:54.756Z,88.6
2018-11-10T12:36:54.496Z,88.6
2018-11-10T12:41:54.504Z,88.2
2018-11-10T12:47:05.642Z,87.3
2018-11-10T12:52:05.468Z,88.2
2018-11-10T12:57:05.470Z,88.2
2018-11-10T13:02:05.594Z,88.2
2018-11-10T13:07:05.618Z,88.8
2018-11-10T13:12:05.544Z,89.5
2018-11-10T13:17:05.628Z,90
2018-11-10T13:22:05.498Z,90
2018-11-10T13:27:05.482Z,90.3
2018-11-10T13:32:16.840Z,90.7
2018-11-10T13:37:16.905Z,91
2018-11-10T13:42:16.839Z,90.7
2018-11-10T13:47:16.744Z,91.2
2018-11-10T13:52:19.224Z,92.5
2018-11-10T13:57:16.803Z,91.8
2018-11-10T14:06:08.656Z,92.7
2018-11-10T14:11:08.755Z,93.9
2018-11-10T14:16:08.633Z,94
2018-11-10T14:21:08.650Z,94
2018-11-10T14:30:51.526Z,95.3
2018-11-10T14:35:51.408Z,95.7
2018-11-10T14:40:51.328Z,96.6
2018-11-10T14:45:51.411Z,96.4
2018-11-10T14:51:01.662Z,97.2
2018-11-10T14:56:01.675Z,97.2
2018-11-10T15:01:01.680Z,97.8
2018-11-10T15:06:01.716Z,97.4
2018-11-10T15:11:01.680Z,97.6
2018-11-10T15:16:01.692Z,98.2
2018-11-10T15:21:01.697Z,98
2018-11-10T15:26:03.797Z,98.5
2018-11-10T15:31:03.807Z,98.7
2018-11-10T15:36:15.459Z,98.9
2018-11-10T15:41:15.375Z,99.6
2018-11-10T15:46:15.373Z,99.8
2018-11-10T15:51:15.391Z,100
2018-11-10T15:56:15.418Z,100
2018-11-10T16:01:15.386Z,100
2018-11-10T16:15:30.393Z,100
2018-11-10T16:20:30.364Z,100
2018-11-10T16:25:30.404Z,100
2018-11-10T16:30:30.374Z,100
2018-11-10T16:35:40.060Z,100
2018-11-10T16:40:40.060Z,100
2018-11-10T16:45:40.388Z,100
2018-11-10T16:50:40.067Z,100
2018-11-10T16:55:40.039Z,100
2018-11-10T17:00:40.045Z,100
2018-11-10T17:05:40.063Z,100
2018-11-10T17:10:40.053Z,100
2018-11-10T17:15:40.471Z,100
2018-11-10T17:20:51.731Z,100
2018-11-10T17:25:51.603Z,100
2018-11-10T17:30:51.571Z,100
2018-11-10T17:35:51.582Z,100
2018-11-10T17:40:51.605Z,100
2018-11-10T17:45:51.617Z,100
2018-11-10T17:50:51.601Z,100
2018-11-10T17:55:51.670Z,100
2018-11-10T18:00:51.678Z,100
2018-11-10T18:06:02.740Z,100
2018-11-10T18:11:02.941Z,100
2018-11-10T18:16:02.751Z,100
2018-11-10T18:21:02.761Z,100
2018-11-10T18:26:02.763Z,100
2018-11-10T18:31:02.816Z,100
2018-11-10T18:36:02.854Z,100
2018-11-10T18:41:02.746Z,100
2018-11-10T18:46:02.784Z,100
2018-11-10T18:51:14.541Z,100
2018-11-10T18:56:14.446Z,100
2018-11-10T19:01:14.472Z,100
2018-11-10T19:06:14.528Z,100
2018-11-10T19:11:14.431Z,100
2018-11-10T19:16:14.416Z,100
2018-11-10T19:21:14.427Z,100
2018-11-10T19:26:17.648Z,100
2018-11-10T19:31:17.704Z,100
2018-11-10T19:36:30.045Z,100
2018-11-10T19:41:30.296Z,100
2018-11-10T19:46:30.078Z,100
2018-11-10T19:51:30.740Z,100
2018-11-10T19:56:30.079Z,100
2018-11-10T20:01:30.324Z,100
2018-11-10T20:06:30.198Z,100
2018-11-10T20:11:30.083Z,100
2018-11-10T20:16:30.091Z,100
2018-11-10T20:21:41.315Z,100
2018-11-10T20:26:41.289Z,100
2018-11-10T20:31:41.312Z,100
2018-11-10T20:36:41.328Z,100
2018-11-10T20:41:41.317Z,100
2018-11-10T20:46:41.322Z,100
2018-11-10T20:51:41.305Z,100
2018-11-10T20:56:41.341Z,100
2018-11-10T21:01:41.311Z,100
2018-11-10T21:06:52.498Z,100
2018-11-10T21:11:52.479Z,100
2018-11-10T21:16:52.485Z,100
2018-11-10T21:21:52.525Z,100
2018-11-10T21:26:52.511Z,100
2018-11-10T21:31:52.493Z,100
2018-11-10T21:36:52.515Z,100
2018-11-10T21:41:52.518Z,100
2018-11-10T21:46:53.769Z,100
2018-11-10T21:52:03.888Z,100
2018-11-10T21:57:03.881Z,100
2018-11-10T22:02:03.890Z,100
2018-11-10T22:07:03.865Z,100
2018-11-10T22:12:03.880Z,100
2018-11-10T22:42:21.574Z,100
2018-11-10T22:47:21.597Z,100
2018-11-10T22:52:21.585Z,100
2018-11-10T22:57:21.580Z,100
2018-11-10T23:02:33.956Z,100
2018-11-10T23:07:33.959Z,100
2018-11-10T23:12:34.083Z,100
2018-11-10T23:17:34.218Z,100
2018-11-10T23:22:33.982Z,100
2018-11-10T23:27:33.973Z,100
2018-11-10T23:32:33.959Z,100
2018-11-10T23:37:33.954Z,100
2018-11-10T23:42:33.970Z,100
2018-11-10T23:47:46.210Z,100
2018-11-10T23:52:46.210Z,100
2018-11-10T23:57:46.228Z,100
